PWSweather.com
Personal Weather Stations
Station Observations
KNYISLAN6
Islandia, NY

Islandia, NY

Lat: 40.802, Lon: -73.192

Elevation: 100

Station Type: Ambient Weather WS-2902A

Latest ConditionsUpdated 3:53:00 AM EDT Thursday, Jul 18, 2019
Currently Today's Max Today's Min Today's Average
Temperature 73.2°F22.9°C 75.7°F24.3°C 72.9°F22.7°C 73.6°F23.1°C
Dew Point 72.9°F22.7°C 75.3°F24.1°C 72.6°F22.6°C 73.3°F22.9°C
Winds 0.2 mph N0.3 kmh N 3.8 mph -6.1 kmh - - 0.3 mph 0.5 kmh
Wind Gusts 1.1 mph1.8 kmh 4.5 mph7.2 kmh - -
Humidity 99% 99% 98% 99%
Pressure 29.89 in1012.2 mb 29.90 in1012.5 mb 29.86 in1011.2 mb -
Precipitation - 0.05 in1.3 mm - -
Hour Temp Dew Point Humidity Winds Wind Gusts Pressure Precip Precip Rate Daily Precip Total
03:53 AM 73.2°F22.9°C 72.9°F22.7°C 99% 0.2 mph N0.3 kmh N 1.1 mph1.8 kmh 29.89 in1012.2 mb 0.00 in0.0 mm 0.00 in0.0 mm 0.05 in1.3 mm
03:52 AM 73.2°F22.9°C 72.9°F22.7°C 99% 2.7 mph W4.3 kmh W 3.4 mph5.5 kmh 29.89 in1012.2 mb 0.00 in0.0 mm 0.00 in0.0 mm 0.05 in1.3 mm
03:51 AM 73.2°F22.9°C 72.9°F22.7°C 99% 0.2 mph NE0.3 kmh NE 1.1 mph1.8 kmh 29.89 in1012.2 mb 0.00 in0.0 mm 0.00 in0.0 mm 0.05 in1.3 mm
03:50 AM 73.0°F22.8°C 72.7°F22.6°C 99% Calm Calm -- 29.89 in1012.2 mb 0.00 in0.0 mm 0.00 in0.0 mm 0.05 in1.3 mm
03:49 AM 73.0°F22.8°C 72.7°F22.6°C 99% 0.7 mph NNE1.1 kmh NNE 2.2 mph3.5 kmh 29.89 in1012.2 mb 0.00 in0.0 mm 0.00 in0.0 mm 0.05 in1.3 mm
03:48 AM 73.0°F22.8°C 72.7°F22.6°C 99% 1.8 mph NW2.9 kmh NW 2.2 mph3.5 kmh 29.90 in1012.5 mb 0.07 in1.8 mm 0.00 in0.0 mm 0.05 in1.3 mm
03:47 AM 73.0°F22.8°C 72.7°F22.6°C 99% 1.8 mph NW2.9 kmh NW 2.2 mph3.5 kmh 29.89 in1012.2 mb 0.07 in1.8 mm 0.00 in0.0 mm 0.05 in1.3 mm
03:46 AM 73.2°F22.9°C 72.9°F22.7°C 99% 1.8 mph NW2.9 kmh NW 2.2 mph3.5 kmh 29.89 in1012.2 mb 0.07 in1.8 mm 0.00 in0.0 mm 0.05 in1.3 mm
03:45 AM 73.2°F22.9°C 72.9°F22.7°C 99% 0.9 mph WNW1.4 kmh WNW 1.1 mph1.8 kmh 29.89 in1012.2 mb 0.07 in1.8 mm 0.00 in0.0 mm 0.05 in1.3 mm
03:44 AM 73.2°F22.9°C 72.9°F22.7°C 99% Calm Calm -- 29.88 in1011.9 mb 0.07 in1.8 mm 0.00 in0.0 mm 0.05 in1.3 mm
03:43 AM 73.0°F22.8°C 72.7°F22.6°C 99% 1.3 mph NW2.1 kmh NW 2.2 mph3.5 kmh 29.89 in1012.2 mb 0.07 in1.8 mm 0.00 in0.0 mm 0.05 in1.3 mm
03:42 AM 73.2°F22.9°C 72.9°F22.7°C 99% 0.7 mph NW1.1 kmh NW 2.2 mph3.5 kmh 29.89 in1012.2 mb 0.07 in1.8 mm 0.00 in0.0 mm 0.05 in1.3 mm
03:41 AM 73.2°F22.9°C 72.9°F22.7°C 99% 0.2 mph N0.3 kmh N 1.1 mph1.8 kmh 29.89 in1012.2 mb 0.07 in1.8 mm 0.00 in0.0 mm 0.05 in1.3 mm
03:40 AM 73.2°F22.9°C 72.9°F22.7°C 99% 0.2 mph NW0.3 kmh NW 1.1 mph1.8 kmh 29.89 in1012.2 mb 0.07 in1.8 mm 0.00 in0.0 mm 0.05 in1.3 mm
03:39 AM 73.2°F22.9°C 72.9°F22.7°C 99% 2.2 mph NW3.5 kmh NW 3.4 mph5.5 kmh 29.89 in1012.2 mb 0.07 in1.8 mm 0.00 in0.0 mm 0.05 in1.3 mm
03:38 AM 73.2°F22.9°C 72.9°F22.7°C 99% 3.6 mph WNW5.8 kmh WNW 4.5 mph7.2 kmh 29.89 in1012.2 mb 0.07 in1.8 mm 4.26 in108.2 mm 0.05 in1.3 mm
03:37 AM 73.2°F22.9°C 72.9°F22.7°C 99% 1.3 mph NW2.1 kmh NW 2.2 mph3.5 kmh 29.89 in1012.2 mb 0.00 in0.0 mm 0.00 in0.0 mm 0.04 in1.0 mm
03:36 AM 73.4°F23.0°C 73.1°F22.8°C 99% Calm Calm -- 29.89 in1012.2 mb 0.00 in0.0 mm 0.00 in0.0 mm 0.04 in1.0 mm
03:35 AM 73.2°F22.9°C 72.9°F22.7°C 99% 3.8 mph NW6.1 kmh NW 4.5 mph7.2 kmh 29.89 in1012.2 mb 0.00 in0.0 mm 0.00 in0.0 mm 0.04 in1.0 mm
03:34 AM 73.4°F23.0°C 73.1°F22.8°C 99% 2.5 mph NW4.0 kmh NW 4.5 mph7.2 kmh 29.88 in1011.9 mb 0.00 in0.0 mm 0.00 in0.0 mm 0.04 in1.0 mm
03:32 AM 73.2°F22.9°C 72.9°F22.7°C 99% 0.7 mph NW1.1 kmh NW 2.2 mph3.5 kmh 29.89 in1012.2 mb 0.00 in0.0 mm 0.00 in0.0 mm 0.04 in1.0 mm
03:30 AM 73.2°F22.9°C 72.9°F22.7°C 99% 0.7 mph N1.1 kmh N 1.1 mph1.8 kmh 29.89 in1012.2 mb 0.00 in0.0 mm 0.00 in0.0 mm 0.04 in1.0 mm
03:29 AM 73.2°F22.9°C 72.9°F22.7°C 99% 0.2 mph NW0.3 kmh NW 1.1 mph1.8 kmh 29.89 in1012.2 mb 0.00 in0.0 mm 0.00 in0.0 mm 0.04 in1.0 mm
03:27 AM 73.2°F22.9°C 72.9°F22.7°C 99% 2.5 mph WNW4.0 kmh WNW 4.5 mph7.2 kmh 29.89 in1012.2 mb 0.00 in0.0 mm 0.00 in0.0 mm 0.04 in1.0 mm
03:26 AM 73.2°F22.9°C 72.9°F22.7°C 99% 2.0 mph NW3.2 kmh NW 3.4 mph5.5 kmh 29.89 in1012.2 mb 0.00 in0.0 mm 0.00 in0.0 mm 0.04 in1.0 mm
03:25 AM 73.4°F23.0°C 73.1°F22.8°C 99% 2.7 mph NW4.3 kmh NW 3.4 mph5.5 kmh 29.89 in1012.2 mb 0.00 in0.0 mm 0.00 in0.0 mm 0.04 in1.0 mm
03:24 AM 73.2°F22.9°C 72.9°F22.7°C 99% 0.7 mph N1.1 kmh N 1.1 mph1.8 kmh 29.89 in1012.2 mb 0.00 in0.0 mm 0.00 in0.0 mm 0.04 in1.0 mm
03:23 AM 73.2°F22.9°C 72.9°F22.7°C 99% 2.2 mph NW3.5 kmh NW 2.2 mph3.5 kmh 29.89 in1012.2 mb 0.00 in0.0 mm 0.00 in0.0 mm 0.04 in1.0 mm
03:22 AM 73.2°F22.9°C 72.9°F22.7°C 99% 0.7 mph NNW1.1 kmh NNW 2.2 mph3.5 kmh 29.89 in1012.2 mb 0.00 in0.0 mm 0.00 in0.0 mm 0.04 in1.0 mm
03:21 AM 73.2°F22.9°C 72.9°F22.7°C 99% 1.3 mph WNW2.1 kmh WNW 2.2 mph3.5 kmh 29.89 in1012.2 mb 0.00 in0.0 mm 0.00 in0.0 mm 0.04 in1.0 mm
03:20 AM 73.2°F22.9°C 72.9°F22.7°C 99% Calm Calm -- 29.89 in1012.2 mb 0.00 in0.0 mm 0.00 in0.0 mm 0.04 in1.0 mm
03:19 AM 73.4°F23.0°C 73.1°F22.8°C 99% 0.9 mph NW1.4 kmh NW 1.1 mph1.8 kmh 29.89 in1012.2 mb 0.00 in0.0 mm 0.00 in0.0 mm 0.04 in1.0 mm
03:18 AM 73.6°F23.1°C 73.3°F22.9°C 99% 1.6 mph SW2.6 kmh SW 2.2 mph3.5 kmh 29.89 in1012.2 mb 0.00 in0.0 mm 0.00 in0.0 mm 0.04 in1.0 mm
03:17 AM 73.6°F23.1°C 73.3°F22.9°C 99% 2.5 mph NW4.0 kmh NW 3.4 mph5.5 kmh 29.89 in1012.2 mb 0.00 in0.0 mm 0.00 in0.0 mm 0.04 in1.0 mm
03:15 AM 73.9°F23.3°C 73.6°F23.1°C 99% 2.0 mph ENE3.2 kmh ENE 2.2 mph3.5 kmh 29.89 in1012.2 mb 0.00 in0.0 mm 0.00 in0.0 mm 0.04 in1.0 mm
03:14 AM 73.9°F23.3°C 73.6°F23.1°C 99% 2.2 mph NW3.5 kmh NW 3.4 mph5.5 kmh 29.89 in1012.2 mb 0.00 in0.0 mm 0.00 in0.0 mm 0.04 in1.0 mm
03:13 AM 73.9°F23.3°C 73.6°F23.1°C 99% 0.7 mph NW1.1 kmh NW 1.1 mph1.8 kmh 29.89 in1012.2 mb 0.00 in0.0 mm 0.00 in0.0 mm 0.04 in1.0 mm
03:12 AM 74.1°F23.4°C 73.8°F23.2°C 99% 2.2 mph NW3.5 kmh NW 3.4 mph5.5 kmh 29.89 in1012.2 mb 0.00 in0.0 mm 0.00 in0.0 mm 0.04 in1.0 mm
03:11 AM 74.1°F23.4°C 73.8°F23.2°C 99% Calm Calm -- 29.89 in1012.2 mb 0.00 in0.0 mm 0.00 in0.0 mm 0.04 in1.0 mm
03:10 AM 74.1°F23.4°C 73.8°F23.2°C 99% Calm Calm -- 29.89 in1012.2 mb 0.00 in0.0 mm 0.00 in0.0 mm 0.04 in1.0 mm
03:08 AM 73.9°F23.3°C 73.6°F23.1°C 99% Calm Calm -- 29.89 in1012.2 mb 0.00 in0.0 mm 0.00 in0.0 mm 0.04 in1.0 mm
03:07 AM 73.9°F23.3°C 73.6°F23.1°C 99% Calm Calm -- 29.89 in1012.2 mb 0.00 in0.0 mm 0.00 in0.0 mm 0.04 in1.0 mm
03:06 AM 73.9°F23.3°C 73.6°F23.1°C 99% Calm Calm -- 29.89 in1012.2 mb 0.00 in0.0 mm 0.00 in0.0 mm 0.04 in1.0 mm
03:05 AM 73.9°F23.3°C 73.6°F23.1°C 99% Calm Calm -- 29.89 in1012.2 mb 0.00 in0.0 mm 0.00 in0.0 mm 0.04 in1.0 mm
03:04 AM 73.8°F23.2°C 73.5°F23.1°C 99% 0.2 mph NNW0.3 kmh NNW 1.1 mph1.8 kmh 29.89 in1012.2 mb 0.00 in0.0 mm 0.00 in0.0 mm 0.04 in1.0 mm
03:03 AM 73.8°F23.2°C 73.5°F23.1°C 99% Calm Calm -- 29.89 in1012.2 mb 0.00 in0.0 mm 0.00 in0.0 mm 0.04 in1.0 mm
03:02 AM 73.8°F23.2°C 73.5°F23.1°C 99% Calm Calm -- 29.89 in1012.2 mb 0.00 in0.0 mm 0.00 in0.0 mm 0.04 in1.0 mm
03:01 AM 73.8°F23.2°C 73.5°F23.1°C 99% Calm Calm -- 29.89 in1012.2 mb 0.00 in0.0 mm 0.00 in0.0 mm 0.04 in1.0 mm
02:59 AM 73.6°F23.1°C 73.3°F22.9°C 99% Calm Calm -- 29.89 in1012.2 mb 0.00 in0.0 mm 0.00 in0.0 mm 0.04 in1.0 mm
02:58 AM 73.6°F23.1°C 73.3°F22.9°C 99% 0.9 mph NW1.4 kmh NW 2.2 mph3.5 kmh 29.89 in1012.2 mb 0.00 in0.0 mm 0.00 in0.0 mm 0.04 in1.0 mm
02:57 AM 73.8°F23.2°C 73.5°F23.1°C 99% 0.4 mph WNW0.6 kmh WNW 1.1 mph1.8 kmh 29.89 in1012.2 mb 0.00 in0.0 mm 0.00 in0.0 mm 0.04 in1.0 mm
02:56 AM 73.8°F23.2°C 73.5°F23.1°C 99% Calm Calm -- 29.89 in1012.2 mb 0.00 in0.0 mm 0.00 in0.0 mm 0.04 in1.0 mm
02:55 AM 73.8°F23.2°C 73.5°F23.1°C 99% Calm Calm -- 29.88 in1011.9 mb 0.00 in0.0 mm 0.00 in0.0 mm 0.04 in1.0 mm
02:54 AM 73.8°F23.2°C 73.5°F23.1°C 99% 0.4 mph WNW0.6 kmh WNW 1.1 mph1.8 kmh 29.89 in1012.2 mb 0.00 in0.0 mm 0.00 in0.0 mm 0.04 in1.0 mm
02:53 AM 73.8°F23.2°C 73.5°F23.1°C 99% Calm Calm -- 29.88 in1011.9 mb 0.00 in0.0 mm 0.00 in0.0 mm 0.04 in1.0 mm
02:52 AM 73.8°F23.2°C 73.5°F23.1°C 99% Calm Calm -- 29.88 in1011.9 mb 0.00 in0.0 mm 0.00 in0.0 mm 0.04 in1.0 mm
02:50 AM 73.8°F23.2°C 73.5°F23.1°C 99% Calm Calm -- 29.88 in1011.9 mb 0.00 in0.0 mm 0.00 in0.0 mm 0.04 in1.0 mm
02:49 AM 73.9°F23.3°C 73.6°F23.1°C 99% Calm Calm -- 29.88 in1011.9 mb 0.00 in0.0 mm 0.00 in0.0 mm 0.04 in1.0 mm
02:47 AM 74.3°F23.5°C 74.0°F23.3°C 99% Calm Calm -- 29.88 in1011.9 mb 0.00 in0.0 mm 0.00 in0.0 mm 0.04 in1.0 mm
02:46 AM 74.5°F23.6°C 74.2°F23.4°C 99% Calm Calm -- 29.89 in1012.2 mb 0.00 in0.0 mm 0.00 in0.0 mm 0.04 in1.0 mm
02:45 AM 74.5°F23.6°C 74.2°F23.4°C 99% Calm Calm -- 29.88 in1011.9 mb 0.00 in0.0 mm 0.00 in0.0 mm 0.04 in1.0 mm
02:44 AM 74.3°F23.5°C 74.0°F23.3°C 99% Calm Calm -- 29.89 in1012.2 mb 0.00 in0.0 mm 0.00 in0.0 mm 0.04 in1.0 mm
02:43 AM 74.1°F23.4°C 73.8°F23.2°C 99% Calm Calm -- 29.88 in1011.9 mb 0.00 in0.0 mm 0.00 in0.0 mm 0.04 in1.0 mm
02:42 AM 73.8°F23.2°C 73.5°F23.1°C 99% Calm Calm -- 29.88 in1011.9 mb 0.00 in0.0 mm 0.00 in0.0 mm 0.04 in1.0 mm
02:41 AM 73.6°F23.1°C 73.3°F22.9°C 99% Calm Calm -- 29.88 in1011.9 mb 0.00 in0.0 mm 0.00 in0.0 mm 0.04 in1.0 mm
02:40 AM 73.4°F23.0°C 73.1°F22.8°C 99% Calm Calm -- 29.88 in1011.9 mb 0.00 in0.0 mm 0.00 in0.0 mm 0.04 in1.0 mm
02:39 AM 73.2°F22.9°C 72.9°F22.7°C 99% Calm Calm -- 29.88 in1011.9 mb 0.00 in0.0 mm 0.00 in0.0 mm 0.04 in1.0 mm
02:38 AM 73.2°F22.9°C 72.9°F22.7°C 99% Calm Calm -- 29.88 in1011.9 mb 0.00 in0.0 mm 0.00 in0.0 mm 0.04 in1.0 mm
02:37 AM 73.0°F22.8°C 72.7°F22.6°C 99% Calm Calm -- 29.88 in1011.9 mb 0.00 in0.0 mm 0.00 in0.0 mm 0.04 in1.0 mm
02:36 AM 73.0°F22.8°C 72.7°F22.6°C 99% Calm Calm -- 29.88 in1011.9 mb 0.00 in0.0 mm 0.00 in0.0 mm 0.04 in1.0 mm
02:35 AM 73.0°F22.8°C 72.7°F22.6°C 99% Calm Calm -- 29.88 in1011.9 mb 0.00 in0.0 mm 0.00 in0.0 mm 0.04 in1.0 mm
02:34 AM 73.0°F22.8°C 72.7°F22.6°C 99% Calm Calm -- 29.89 in1012.2 mb 0.00 in0.0 mm 0.00 in0.0 mm 0.04 in1.0 mm
02:33 AM 73.0°F22.8°C 72.7°F22.6°C 99% Calm Calm -- 29.88 in1011.9 mb 0.00 in0.0 mm 0.00 in0.0 mm 0.04 in1.0 mm
02:32 AM 73.0°F22.8°C 72.7°F22.6°C 99% Calm Calm -- 29.88 in1011.9 mb 0.00 in0.0 mm 0.00 in0.0 mm 0.04 in1.0 mm
02:31 AM 73.0°F22.8°C 72.7°F22.6°C 99% Calm Calm -- 29.88 in1011.9 mb 0.00 in0.0 mm 0.00 in0.0 mm 0.04 in1.0 mm
02:30 AM 73.0°F22.8°C 72.7°F22.6°C 99% Calm Calm -- 29.87 in1011.5 mb 0.00 in0.0 mm 0.00 in0.0 mm 0.04 in1.0 mm
02:29 AM 73.0°F22.8°C 72.7°F22.6°C 99% Calm Calm -- 29.88 in1011.9 mb 0.00 in0.0 mm 0.00 in0.0 mm 0.04 in1.0 mm
02:27 AM 73.0°F22.8°C 72.7°F22.6°C 99% Calm Calm -- 29.88 in1011.9 mb 0.00 in0.0 mm 0.00 in0.0 mm 0.04 in1.0 mm
02:25 AM 73.0°F22.8°C 72.7°F22.6°C 99% Calm Calm -- 29.88 in1011.9 mb 0.00 in0.0 mm 0.00 in0.0 mm 0.04 in1.0 mm
02:23 AM 73.0°F22.8°C 72.7°F22.6°C 99% Calm Calm -- 29.88 in1011.9 mb 0.00 in0.0 mm 0.00 in0.0 mm 0.04 in1.0 mm
02:21 AM 73.0°F22.8°C 72.7°F22.6°C 99% Calm Calm -- 29.88 in1011.9 mb 0.00 in0.0 mm 0.00 in0.0 mm 0.04 in1.0 mm
02:20 AM 73.2°F22.9°C 72.9°F22.7°C 99% Calm Calm -- 29.88 in1011.9 mb 0.00 in0.0 mm 0.00 in0.0 mm 0.04 in1.0 mm
02:19 AM 73.4°F23.0°C 73.1°F22.8°C 99% Calm Calm -- 29.88 in1011.9 mb 0.00 in0.0 mm 0.00 in0.0 mm 0.04 in1.0 mm
02:18 AM 73.4°F23.0°C 73.1°F22.8°C 99% Calm Calm -- 29.88 in1011.9 mb 0.00 in0.0 mm 0.00 in0.0 mm 0.04 in1.0 mm
02:17 AM 73.4°F23.0°C 73.1°F22.8°C 99% Calm Calm -- 29.87 in1011.5 mb 0.00 in0.0 mm 0.00 in0.0 mm 0.04 in1.0 mm
02:15 AM 73.4°F23.0°C 73.1°F22.8°C 99% Calm Calm -- 29.87 in1011.5 mb 0.00 in0.0 mm 0.00 in0.0 mm 0.04 in1.0 mm
02:14 AM 73.4°F23.0°C 73.1°F22.8°C 99% Calm Calm -- 29.88 in1011.9 mb 0.00 in0.0 mm 0.00 in0.0 mm 0.04 in1.0 mm
02:13 AM 73.4°F23.0°C 73.1°F22.8°C 99% Calm Calm -- 29.88 in1011.9 mb 0.00 in0.0 mm 0.00 in0.0 mm 0.04 in1.0 mm
02:12 AM 73.4°F23.0°C 73.1°F22.8°C 99% Calm Calm -- 29.89 in1012.2 mb 0.00 in0.0 mm 0.00 in0.0 mm 0.04 in1.0 mm
02:11 AM 73.6°F23.1°C 73.3°F22.9°C 99% 0.2 mph NNW0.3 kmh NNW 1.1 mph1.8 kmh 29.87 in1011.5 mb 0.00 in0.0 mm 0.00 in0.0 mm 0.04 in1.0 mm
02:10 AM 73.6°F23.1°C 73.3°F22.9°C 99% Calm Calm -- 29.88 in1011.9 mb 0.00 in0.0 mm 0.00 in0.0 mm 0.04 in1.0 mm
02:09 AM 73.6°F23.1°C 73.3°F22.9°C 99% Calm Calm -- 29.89 in1012.2 mb 0.00 in0.0 mm 0.00 in0.0 mm 0.04 in1.0 mm
02:08 AM 73.6°F23.1°C 73.3°F22.9°C 99% Calm Calm -- 29.88 in1011.9 mb 0.00 in0.0 mm 0.00 in0.0 mm 0.04 in1.0 mm
02:07 AM 73.6°F23.1°C 73.3°F22.9°C 99% Calm Calm -- 29.88 in1011.9 mb 0.00 in0.0 mm 0.00 in0.0 mm 0.04 in1.0 mm
02:06 AM 73.4°F23.0°C 73.1°F22.8°C 99% Calm Calm -- 29.88 in1011.9 mb 0.00 in0.0 mm 0.00 in0.0 mm 0.04 in1.0 mm
02:05 AM 73.4°F23.0°C 73.1°F22.8°C 99% Calm Calm -- 29.88 in1011.9 mb 0.00 in0.0 mm 0.00 in0.0 mm 0.04 in1.0 mm
02:03 AM 73.4°F23.0°C 73.1°F22.8°C 99% Calm Calm -- 29.88 in1011.9 mb 0.00 in0.0 mm 0.00 in0.0 mm 0.04 in1.0 mm
02:02 AM 73.6°F23.1°C 73.3°F22.9°C 99% Calm Calm -- 29.88 in1011.9 mb 0.00 in0.0 mm 0.00 in0.0 mm 0.04 in1.0 mm
02:01 AM 73.8°F23.2°C 73.5°F23.1°C 99% Calm Calm -- 29.88 in1011.9 mb 0.00 in0.0 mm 0.00 in0.0 mm 0.04 in1.0 mm
02:00 AM 73.8°F23.2°C 73.5°F23.1°C 99% Calm Calm -- 29.88 in1011.9 mb 0.00 in0.0 mm 0.00 in0.0 mm 0.04 in1.0 mm
01:59 AM 73.8°F23.2°C 73.5°F23.1°C 99% Calm Calm -- 29.87 in1011.5 mb 0.00 in0.0 mm 0.00 in0.0 mm 0.04 in1.0 mm
01:58 AM 73.8°F23.2°C 73.5°F23.1°C 99% Calm Calm -- 29.88 in1011.9 mb 0.00 in0.0 mm 0.00 in0.0 mm 0.04 in1.0 mm
01:57 AM 73.6°F23.1°C 73.3°F22.9°C 99% Calm Calm -- 29.88 in1011.9 mb 0.00 in0.0 mm 0.00 in0.0 mm 0.04 in1.0 mm
01:56 AM 73.6°F23.1°C 73.3°F22.9°C 99% 0.2 mph N0.3 kmh N 1.1 mph1.8 kmh 29.88 in1011.9 mb 0.00 in0.0 mm 0.00 in0.0 mm 0.04 in1.0 mm
01:55 AM 73.4°F23.0°C 73.1°F22.8°C 99% Calm Calm -- 29.87 in1011.5 mb 0.00 in0.0 mm 0.00 in0.0 mm 0.04 in1.0 mm
01:54 AM 73.4°F23.0°C 73.1°F22.8°C 99% 0.2 mph NNW0.3 kmh NNW 1.1 mph1.8 kmh 29.87 in1011.5 mb 0.00 in0.0 mm 0.00 in0.0 mm 0.04 in1.0 mm
01:53 AM 73.4°F23.0°C 73.1°F22.8°C 99% Calm Calm -- 29.87 in1011.5 mb 0.00 in0.0 mm 0.00 in0.0 mm 0.04 in1.0 mm
01:52 AM 73.4°F23.0°C 73.1°F22.8°C 99% Calm Calm -- 29.87 in1011.5 mb 0.00 in0.0 mm 0.00 in0.0 mm 0.04 in1.0 mm
01:51 AM 73.2°F22.9°C 72.9°F22.7°C 99% Calm Calm -- 29.88 in1011.9 mb 0.00 in0.0 mm 0.00 in0.0 mm 0.04 in1.0 mm
01:50 AM 73.2°F22.9°C 72.9°F22.7°C 99% Calm Calm -- 29.87 in1011.5 mb 0.00 in0.0 mm 0.00 in0.0 mm 0.04 in1.0 mm
01:49 AM 73.0°F22.8°C 72.7°F22.6°C 99% Calm Calm -- 29.88 in1011.9 mb 0.00 in0.0 mm 0.00 in0.0 mm 0.04 in1.0 mm
01:48 AM 73.0°F22.8°C 72.7°F22.6°C 99% Calm Calm -- 29.88 in1011.9 mb 0.00 in0.0 mm 0.00 in0.0 mm 0.04 in1.0 mm
01:47 AM 72.9°F22.7°C 72.6°F22.6°C 99% Calm Calm -- 29.87 in1011.5 mb 0.00 in0.0 mm 0.00 in0.0 mm 0.04 in1.0 mm
01:46 AM 73.0°F22.8°C 72.7°F22.6°C 99% Calm Calm -- 29.87 in1011.5 mb 0.00 in0.0 mm 0.00 in0.0 mm 0.04 in1.0 mm
01:45 AM 73.0°F22.8°C 72.7°F22.6°C 99% Calm Calm -- 29.87 in1011.5 mb 0.00 in0.0 mm 0.00 in0.0 mm 0.04 in1.0 mm
01:44 AM 73.0°F22.8°C 72.7°F22.6°C 99% Calm Calm -- 29.87 in1011.5 mb 0.00 in0.0 mm 0.00 in0.0 mm 0.04 in1.0 mm
01:43 AM 73.0°F22.8°C 72.7°F22.6°C 99% Calm Calm -- 29.88 in1011.9 mb 0.00 in0.0 mm 0.00 in0.0 mm 0.04 in1.0 mm
01:42 AM 73.0°F22.8°C 72.7°F22.6°C 99% Calm Calm -- 29.87 in1011.5 mb 0.00 in0.0 mm 0.00 in0.0 mm 0.04 in1.0 mm
01:41 AM 73.0°F22.8°C 72.7°F22.6°C 99% Calm Calm -- 29.87 in1011.5 mb 0.00 in0.0 mm 0.00 in0.0 mm 0.04 in1.0 mm
01:40 AM 73.0°F22.8°C 72.7°F22.6°C 99% Calm Calm -- 29.87 in1011.5 mb 0.00 in0.0 mm 0.00 in0.0 mm 0.04 in1.0 mm
01:39 AM 73.0°F22.8°C 72.7°F22.6°C 99% Calm Calm -- 29.87 in1011.5 mb 0.00 in0.0 mm 0.00 in0.0 mm 0.04 in1.0 mm
01:38 AM 73.0°F22.8°C 72.7°F22.6°C 99% Calm Calm -- 29.87 in1011.5 mb 0.00 in0.0 mm 0.00 in0.0 mm 0.04 in1.0 mm
01:35 AM 73.0°F22.8°C 72.7°F22.6°C 99% Calm Calm -- 29.87 in1011.5 mb 0.00 in0.0 mm 0.00 in0.0 mm 0.04 in1.0 mm
01:34 AM 73.0°F22.8°C 72.7°F22.6°C 99% Calm Calm -- 29.87 in1011.5 mb 0.00 in0.0 mm 0.00 in0.0 mm 0.04 in1.0 mm
01:33 AM 73.0°F22.8°C 72.7°F22.6°C 99% Calm Calm -- 29.87 in1011.5 mb 0.00 in0.0 mm 0.00 in0.0 mm 0.04 in1.0 mm
01:32 AM 73.0°F22.8°C 72.7°F22.6°C 99% Calm Calm -- 29.87 in1011.5 mb 0.00 in0.0 mm 0.00 in0.0 mm 0.04 in1.0 mm
01:31 AM 73.0°F22.8°C 72.7°F22.6°C 99% Calm Calm -- 29.86 in1011.2 mb 0.00 in0.0 mm 0.00 in0.0 mm 0.04 in1.0 mm
01:30 AM 73.0°F22.8°C 72.7°F22.6°C 99% Calm Calm -- 29.87 in1011.5 mb 0.00 in0.0 mm 0.00 in0.0 mm 0.04 in1.0 mm
01:29 AM 73.0°F22.8°C 72.7°F22.6°C 99% Calm Calm -- 29.87 in1011.5 mb 0.00 in0.0 mm 0.00 in0.0 mm 0.04 in1.0 mm
01:28 AM 73.2°F22.9°C 72.9°F22.7°C 99% Calm Calm -- 29.87 in1011.5 mb 0.00 in0.0 mm 0.00 in0.0 mm 0.04 in1.0 mm
01:27 AM 73.2°F22.9°C 72.9°F22.7°C 99% Calm Calm -- 29.86 in1011.2 mb 0.00 in0.0 mm 0.00 in0.0 mm 0.04 in1.0 mm
01:26 AM 73.2°F22.9°C 72.9°F22.7°C 99% Calm Calm -- 29.87 in1011.5 mb 0.00 in0.0 mm 0.00 in0.0 mm 0.04 in1.0 mm
01:25 AM 73.2°F22.9°C 72.9°F22.7°C 99% Calm Calm -- 29.87 in1011.5 mb 0.00 in0.0 mm 0.00 in0.0 mm 0.04 in1.0 mm
01:24 AM 73.2°F22.9°C 72.9°F22.7°C 99% Calm Calm -- 29.86 in1011.2 mb 0.00 in0.0 mm 0.00 in0.0 mm 0.04 in1.0 mm
01:23 AM 73.2°F22.9°C 72.9°F22.7°C 99% Calm Calm -- 29.86 in1011.2 mb 0.00 in0.0 mm 0.00 in0.0 mm 0.04 in1.0 mm
01:22 AM 73.2°F22.9°C 72.9°F22.7°C 99% Calm Calm -- 29.86 in1011.2 mb 0.00 in0.0 mm 0.00 in0.0 mm 0.04 in1.0 mm
01:21 AM 73.2°F22.9°C 72.9°F22.7°C 99% Calm Calm -- 29.86 in1011.2 mb 0.00 in0.0 mm 0.00 in0.0 mm 0.04 in1.0 mm
01:19 AM 73.2°F22.9°C 72.9°F22.7°C 99% Calm Calm -- 29.87 in1011.5 mb 0.00 in0.0 mm 0.00 in0.0 mm 0.04 in1.0 mm
01:18 AM 73.2°F22.9°C 72.9°F22.7°C 99% Calm Calm -- 29.87 in1011.5 mb 0.00 in0.0 mm 0.00 in0.0 mm 0.04 in1.0 mm
01:17 AM 73.2°F22.9°C 72.9°F22.7°C 99% Calm Calm -- 29.86 in1011.2 mb 0.00 in0.0 mm 0.00 in0.0 mm 0.04 in1.0 mm
01:16 AM 73.2°F22.9°C 72.9°F22.7°C 99% Calm Calm -- 29.86 in1011.2 mb 0.00 in0.0 mm 0.00 in0.0 mm 0.04 in1.0 mm
01:13 AM 73.2°F22.9°C 72.9°F22.7°C 99% Calm Calm -- 29.87 in1011.5 mb 0.00 in0.0 mm 0.00 in0.0 mm 0.04 in1.0 mm
01:12 AM 73.2°F22.9°C 72.9°F22.7°C 99% Calm Calm -- 29.87 in1011.5 mb 0.00 in0.0 mm 0.00 in0.0 mm 0.04 in1.0 mm
01:09 AM 73.2°F22.9°C 72.9°F22.7°C 99% Calm Calm -- 29.86 in1011.2 mb 0.00 in0.0 mm 0.00 in0.0 mm 0.04 in1.0 mm
01:08 AM 73.2°F22.9°C 72.9°F22.7°C 99% Calm Calm -- 29.87 in1011.5 mb 0.00 in0.0 mm 0.00 in0.0 mm 0.04 in1.0 mm
01:07 AM 73.2°F22.9°C 72.9°F22.7°C 99% Calm Calm -- 29.86 in1011.2 mb 0.00 in0.0 mm 0.00 in0.0 mm 0.04 in1.0 mm
01:06 AM 73.4°F23.0°C 73.1°F22.8°C 99% Calm Calm -- 29.86 in1011.2 mb 0.00 in0.0 mm 0.00 in0.0 mm 0.04 in1.0 mm
01:05 AM 73.4°F23.0°C 73.1°F22.8°C 99% Calm Calm -- 29.86 in1011.2 mb 0.00 in0.0 mm 0.00 in0.0 mm 0.04 in1.0 mm
01:03 AM 73.6°F23.1°C 73.3°F22.9°C 99% Calm Calm -- 29.87 in1011.5 mb 0.00 in0.0 mm 0.00 in0.0 mm 0.04 in1.0 mm
01:02 AM 73.6°F23.1°C 73.3°F22.9°C 99% Calm Calm -- 29.86 in1011.2 mb 0.00 in0.0 mm 0.00 in0.0 mm 0.04 in1.0 mm
01:01 AM 73.6°F23.1°C 73.3°F22.9°C 99% Calm Calm -- 29.86 in1011.2 mb 0.00 in0.0 mm 0.00 in0.0 mm 0.04 in1.0 mm
01:00 AM 73.6°F23.1°C 73.3°F22.9°C 99% Calm Calm -- 29.86 in1011.2 mb 0.00 in0.0 mm 0.00 in0.0 mm 0.04 in1.0 mm
12:59 AM 73.4°F23.0°C 73.1°F22.8°C 99% Calm Calm -- 29.87 in1011.5 mb 0.00 in0.0 mm 0.00 in0.0 mm 0.04 in1.0 mm
12:58 AM 73.4°F23.0°C 73.1°F22.8°C 99% Calm Calm -- 29.86 in1011.2 mb 0.00 in0.0 mm 0.00 in0.0 mm 0.04 in1.0 mm
12:57 AM 73.4°F23.0°C 73.1°F22.8°C 99% Calm Calm -- 29.86 in1011.2 mb 0.00 in0.0 mm 0.00 in0.0 mm 0.04 in1.0 mm
12:56 AM 73.4°F23.0°C 73.1°F22.8°C 99% Calm Calm -- 29.86 in1011.2 mb 0.00 in0.0 mm 0.00 in0.0 mm 0.04 in1.0 mm
12:55 AM 73.4°F23.0°C 73.1°F22.8°C 99% Calm Calm -- 29.86 in1011.2 mb 0.00 in0.0 mm 0.00 in0.0 mm 0.04 in1.0 mm
12:53 AM 73.4°F23.0°C 73.1°F22.8°C 99% Calm Calm -- 29.86 in1011.2 mb 0.00 in0.0 mm 0.00 in0.0 mm 0.04 in1.0 mm
12:52 AM 73.4°F23.0°C 73.1°F22.8°C 99% Calm Calm -- 29.86 in1011.2 mb 0.00 in0.0 mm 0.00 in0.0 mm 0.04 in1.0 mm
12:51 AM 73.4°F23.0°C 73.1°F22.8°C 99% Calm Calm -- 29.86 in1011.2 mb 0.00 in0.0 mm 0.00 in0.0 mm 0.04 in1.0 mm
12:49 AM 73.4°F23.0°C 73.1°F22.8°C 99% Calm Calm -- 29.86 in1011.2 mb 0.00 in0.0 mm 0.00 in0.0 mm 0.04 in1.0 mm
12:48 AM 73.6°F23.1°C 73.3°F22.9°C 99% Calm Calm -- 29.86 in1011.2 mb 0.00 in0.0 mm 0.00 in0.0 mm 0.04 in1.0 mm
12:46 AM 73.6°F23.1°C 73.3°F22.9°C 99% Calm Calm -- 29.86 in1011.2 mb 0.00 in0.0 mm 0.00 in0.0 mm 0.04 in1.0 mm
12:45 AM 73.8°F23.2°C 73.5°F23.1°C 99% Calm Calm -- 29.86 in1011.2 mb 0.00 in0.0 mm 0.00 in0.0 mm 0.04 in1.0 mm
12:44 AM 73.8°F23.2°C 73.5°F23.1°C 99% Calm Calm -- 29.86 in1011.2 mb 0.00 in0.0 mm 0.00 in0.0 mm 0.04 in1.0 mm
12:43 AM 73.8°F23.2°C 73.5°F23.1°C 99% Calm Calm -- 29.86 in1011.2 mb 0.00 in0.0 mm 0.00 in0.0 mm 0.04 in1.0 mm
12:42 AM 73.8°F23.2°C 73.5°F23.1°C 99% Calm Calm -- 29.86 in1011.2 mb 0.00 in0.0 mm 0.00 in0.0 mm 0.04 in1.0 mm
12:41 AM 73.9°F23.3°C 73.6°F23.1°C 99% Calm Calm -- 29.87 in1011.5 mb 0.00 in0.0 mm 0.00 in0.0 mm 0.04 in1.0 mm
12:39 AM 74.1°F23.4°C 73.8°F23.2°C 99% Calm Calm -- 29.86 in1011.2 mb 0.00 in0.0 mm 0.00 in0.0 mm 0.04 in1.0 mm
12:38 AM 74.1°F23.4°C 73.8°F23.2°C 99% Calm Calm -- 29.87 in1011.5 mb 0.05 in1.3 mm 0.00 in0.0 mm 0.04 in1.0 mm
12:37 AM 74.3°F23.5°C 73.7°F23.2°C 98% Calm Calm -- 29.86 in1011.2 mb 0.05 in1.3 mm 0.00 in0.0 mm 0.04 in1.0 mm
12:36 AM 74.3°F23.5°C 74.0°F23.3°C 99% Calm Calm -- 29.87 in1011.5 mb 0.05 in1.3 mm 0.00 in0.0 mm 0.04 in1.0 mm
12:35 AM 74.3°F23.5°C 73.7°F23.2°C 98% Calm Calm -- 29.87 in1011.5 mb 0.05 in1.3 mm 0.00 in0.0 mm 0.04 in1.0 mm
12:34 AM 74.5°F23.6°C 73.9°F23.3°C 98% Calm Calm -- 29.87 in1011.5 mb 0.05 in1.3 mm 0.00 in0.0 mm 0.04 in1.0 mm
12:33 AM 74.5°F23.6°C 73.9°F23.3°C 98% Calm Calm -- 29.87 in1011.5 mb 0.05 in1.3 mm 0.00 in0.0 mm 0.04 in1.0 mm
12:32 AM 74.8°F23.8°C 74.5°F23.6°C 99% Calm Calm -- 29.87 in1011.5 mb 0.05 in1.3 mm 0.00 in0.0 mm 0.04 in1.0 mm
12:31 AM 75.2°F24.0°C 74.6°F23.7°C 98% Calm Calm -- 29.86 in1011.2 mb 0.05 in1.3 mm 0.00 in0.0 mm 0.04 in1.0 mm
12:30 AM 75.6°F24.2°C 75.0°F23.9°C 98% Calm Calm -- 29.87 in1011.5 mb 0.05 in1.3 mm 0.00 in0.0 mm 0.04 in1.0 mm
12:29 AM 75.7°F24.3°C 75.1°F23.9°C 98% Calm Calm -- 29.87 in1011.5 mb 0.05 in1.3 mm 0.00 in0.0 mm 0.04 in1.0 mm
12:28 AM 75.7°F24.3°C 75.1°F23.9°C 98% Calm Calm -- 29.86 in1011.2 mb 0.05 in1.3 mm 2.82 in71.6 mm 0.04 in1.0 mm
12:27 AM 75.6°F24.2°C 75.3°F24.1°C 99% Calm Calm -- 29.87 in1011.5 mb 0.00 in0.0 mm 0.00 in0.0 mm 0.03 in0.8 mm
12:26 AM 75.6°F24.2°C 75.3°F24.1°C 99% Calm Calm -- 29.88 in1011.9 mb 0.07 in1.8 mm 0.00 in0.0 mm 0.03 in0.8 mm
12:25 AM 75.4°F24.1°C 75.1°F23.9°C 99% Calm Calm -- 29.87 in1011.5 mb 0.07 in1.8 mm 0.00 in0.0 mm 0.03 in0.8 mm
12:23 AM 75.4°F24.1°C 75.1°F23.9°C 99% Calm Calm -- 29.88 in1011.9 mb 0.07 in1.8 mm 0.00 in0.0 mm 0.03 in0.8 mm
12:22 AM 75.4°F24.1°C 74.8°F23.8°C 98% Calm Calm -- 29.88 in1011.9 mb 0.07 in1.8 mm 0.00 in0.0 mm 0.03 in0.8 mm
12:21 AM 75.6°F24.2°C 75.0°F23.9°C 98% 0.4 mph N0.6 kmh N 1.1 mph1.8 kmh 29.87 in1011.5 mb 0.07 in1.8 mm 0.00 in0.0 mm 0.03 in0.8 mm
12:20 AM 75.6°F24.2°C 75.3°F24.1°C 99% Calm Calm -- 29.88 in1011.9 mb 0.07 in1.8 mm 0.00 in0.0 mm 0.03 in0.8 mm
12:18 AM 75.4°F24.1°C 75.1°F23.9°C 99% Calm Calm -- 29.88 in1011.9 mb 0.12 in3.0 mm 0.00 in0.0 mm 0.03 in0.8 mm
12:17 AM 75.2°F24.0°C 74.9°F23.8°C 99% Calm Calm -- 29.89 in1012.2 mb 0.12 in3.0 mm 2.13 in54.1 mm 0.03 in0.8 mm
12:15 AM 75.2°F24.0°C 74.9°F23.8°C 99% Calm Calm -- 29.88 in1011.9 mb 0.05 in1.3 mm 0.00 in0.0 mm 0.02 in0.5 mm
12:14 AM 75.2°F24.0°C 74.9°F23.8°C 99% Calm Calm -- 29.88 in1011.9 mb 0.12 in3.0 mm 0.00 in0.0 mm 0.02 in0.5 mm
12:13 AM 75.2°F24.0°C 74.9°F23.8°C 99% 0.2 mph NNE0.3 kmh NNE 1.1 mph1.8 kmh 29.88 in1011.9 mb 0.12 in3.0 mm 0.00 in0.0 mm 0.02 in0.5 mm
12:12 AM 75.2°F24.0°C 74.9°F23.8°C 99% Calm Calm -- 29.89 in1012.2 mb 0.12 in3.0 mm 0.00 in0.0 mm 0.02 in0.5 mm
12:11 AM 75.2°F24.0°C 74.9°F23.8°C 99% 0.2 mph NNW0.3 kmh NNW 1.1 mph1.8 kmh 29.88 in1011.9 mb 0.12 in3.0 mm 0.00 in0.0 mm 0.02 in0.5 mm
12:10 AM 75.2°F24.0°C 74.9°F23.8°C 99% Calm Calm -- 29.89 in1012.2 mb 0.12 in3.0 mm 0.00 in0.0 mm 0.02 in0.5 mm
12:09 AM 75.0°F23.9°C 74.7°F23.7°C 99% Calm Calm -- 29.88 in1011.9 mb 0.12 in3.0 mm 0.00 in0.0 mm 0.02 in0.5 mm
12:07 AM 74.8°F23.8°C 74.5°F23.6°C 99% Calm Calm -- 29.89 in1012.2 mb 0.12 in3.0 mm 0.00 in0.0 mm 0.01 in0.3 mm
12:06 AM 74.5°F23.6°C 74.2°F23.4°C 99% Calm Calm -- 29.89 in1012.2 mb 0.12 in3.0 mm 0.00 in0.0 mm 0.01 in0.3 mm
12:05 AM 74.1°F23.4°C 73.8°F23.2°C 99% Calm Calm -- 29.89 in1012.2 mb 0.19 in4.8 mm 4.26 in108.2 mm 0.01 in0.3 mm
12:04 AM 73.8°F23.2°C 73.5°F23.1°C 99% Calm Calm -- 29.89 in1012.2 mb 0.12 in3.0 mm 0.00 in0.0 mm 0.17 in4.3 mm
12:03 AM 73.6°F23.1°C 73.3°F22.9°C 99% Calm Calm -- 29.89 in1012.2 mb 0.12 in3.0 mm 0.00 in0.0 mm 0.17 in4.3 mm
12:02 AM 73.2°F22.9°C 72.9°F22.7°C 99% Calm Calm -- 29.89 in1012.2 mb 0.12 in3.0 mm 0.00 in0.0 mm 0.17 in4.3 mm
12:01 AM 73.2°F22.9°C 72.9°F22.7°C 99% Calm Calm -- 29.89 in1012.2 mb 0.17 in4.3 mm 9.90 in251.5 mm 0.17 in4.3 mm